createdAt,value
2023-01-02T00:00:51.589Z,62.30
2023-01-02T00:03:18.308Z,56.95
2023-01-02T00:05:44.912Z,86.97
2023-01-02T00:08:11.354Z,73.60
2023-01-02T00:10:37.782Z,82.15
2023-01-02T00:13:04.322Z,53.65
2023-01-02T00:15:30.760Z,48.10
2023-01-02T00:17:57.126Z,70.15
2023-01-02T00:20:23.545Z,86.93
2023-01-02T00:22:50.293Z,72.72
2023-01-02T00:25:16.692Z,84.82
2023-01-02T00:27:43.086Z,73.35
2023-01-02T00:30:10.316Z,49.47
2023-01-02T00:32:36.718Z,50.78
2023-01-02T00:35:03.208Z,69.90
2023-01-02T00:37:29.588Z,74.60
2023-01-02T00:39:56.000Z,52.05
2023-01-02T00:42:22.489Z,56.00
2023-01-02T00:44:48.877Z,43.55
2023-01-02T00:47:15.358Z,53.97
2023-01-02T00:49:41.880Z,47.65
2023-01-02T00:52:08.367Z,46.08
2023-01-02T00:54:34.773Z,81.45
2023-01-02T00:57:01.235Z,58.38
2023-01-02T00:59:27.653Z,49.45
2023-01-02T01:01:54.144Z,44.63
2023-01-02T01:04:20.578Z,66.55
2023-01-02T01:06:46.952Z,74.68
2023-01-02T01:09:13.613Z,72.78
2023-01-02T01:11:40.000Z,62.05
2023-01-02T01:14:06.412Z,53.13
2023-01-02T01:16:32.907Z,53.17
2023-01-02T01:18:59.347Z,47.17
2023-01-02T01:21:25.814Z,52.15
2023-01-02T01:23:54.631Z,49.45
2023-01-02T01:26:21.821Z,55.13
2023-01-02T01:28:48.488Z,45.30
2023-01-02T01:31:16.278Z,59.47
2023-01-02T01:33:43.961Z,51.50
2023-01-02T01:36:18.761Z,51.47
2023-01-02T01:38:46.586Z,51.28
2023-01-02T01:41:15.871Z,52.50
2023-01-02T01:43:50.133Z,49.33
2023-01-02T01:46:41.418Z,54.33
2023-01-02T01:49:15.483Z,48.88
2023-01-02T01:51:54.954Z,52.45
2023-01-02T01:54:28.058Z,56.97
2023-01-02T01:57:00.107Z,56.17
2023-01-02T01:59:27.421Z,56.53
2023-01-02T02:01:54.286Z,56.53
2023-01-02T02:04:24.915Z,57.25
2023-01-02T02:06:52.106Z,55.55
2023-01-02T02:09:35.640Z,57.47
2023-01-02T02:12:04.159Z,50.72
2023-01-02T02:14:30.781Z,47.55
2023-01-02T02:17:04.553Z,50.38
2023-01-02T02:19:52.338Z,59.00
2023-01-02T02:22:41.989Z,61.47
2023-01-02T02:25:36.906Z,70.15
2023-01-02T02:28:50.212Z,68.63
2023-01-02T02:31:42.387Z,66.00
2023-01-02T02:34:27.042Z,55.17
2023-01-02T02:37:15.563Z,71.95
2023-01-02T02:40:03.602Z,55.55
2023-01-02T02:43:09.213Z,66.35
2023-01-02T02:45:54.354Z,61.95
2023-01-02T02:48:56.233Z,67.28
2023-01-02T02:54:12.485Z,57.70
2023-01-02T02:56:40.499Z,50.20
2023-01-02T02:59:07.848Z,49.40
2023-01-02T03:01:35.968Z,56.70
2023-01-02T03:04:02.425Z,50.63
2023-01-02T03:06:42.143Z,58.58
2023-01-02T03:09:37.039Z,45.60
2023-01-02T03:12:38.628Z,57.72
2023-01-02T03:15:13.661Z,56.08
2023-01-02T03:17:45.650Z,55.70
2023-01-02T03:20:16.117Z,59.53
2023-01-02T03:22:48.586Z,48.78
2023-01-02T03:25:16.995Z,48.22
2023-01-02T03:27:48.378Z,55.38
2023-01-02T03:32:59.957Z,58.92
2023-01-02T03:35:32.824Z,59.63
2023-01-02T03:37:59.779Z,53.17
2023-01-02T03:40:37.584Z,61.33
2023-01-02T03:43:29.021Z,68.00
2023-01-02T03:46:07.660Z,52.83
2023-01-02T03:48:42.574Z,59.92
2023-01-02T03:51:09.032Z,63.28
2023-01-02T03:53:39.167Z,64.63
2023-01-02T03:56:24.125Z,63.80
2023-01-02T03:58:58.327Z,64.15
2023-01-02T04:01:37.798Z,61.60
2023-01-02T04:04:17.402Z,56.13
2023-01-02T04:06:49.807Z,82.65
2023-01-02T04:09:22.874Z,66.68
2023-01-02T04:11:55.786Z,70.15
2023-01-02T04:14:31.486Z,62.45
2023-01-02T04:17:01.122Z,59.90
2023-01-02T04:19:34.406Z,68.03
2023-01-02T04:22:06.509Z,71.65
2023-01-02T04:24:38.588Z,64.35
2023-01-02T04:27:18.475Z,56.53
2023-01-02T04:29:44.920Z,64.28
2023-01-02T04:32:19.180Z,63.05
2023-01-02T04:34:47.693Z,62.60
2023-01-02T04:37:39.245Z,63.08
2023-01-02T04:40:12.434Z,61.67
2023-01-02T04:42:39.130Z,64.57
2023-01-02T04:45:06.115Z,60.78
2023-01-02T04:47:32.538Z,86.03
2023-01-02T04:49:58.947Z,62.35
2023-01-02T04:52:25.358Z,68.93
2023-01-02T04:54:51.754Z,57.88
2023-01-02T04:57:18.158Z,67.13
2023-01-02T04:59:44.637Z,72.95
2023-01-02T05:02:11.170Z,70.22
2023-01-02T05:04:37.674Z,65.47
2023-01-02T05:07:04.779Z,65.15
2023-01-02T05:09:31.205Z,58.38
2023-01-02T05:11:57.635Z,68.07
2023-01-02T05:14:24.424Z,55.05
2023-01-02T05:16:50.882Z,57.60
2023-01-02T05:19:17.321Z,63.20
2023-01-02T05:22:02.222Z,63.33
2023-01-02T05:24:28.619Z,62.10
2023-01-02T05:26:55.076Z,64.85
2023-01-02T05:29:21.538Z,71.07
2023-01-02T05:31:47.976Z,59.25
2023-01-02T05:34:15.568Z,63.28
2023-01-02T05:36:42.393Z,61.40
2023-01-02T05:39:12.012Z,57.22
2023-01-02T05:41:39.320Z,61.90
2023-01-02T05:44:08.569Z,70.97
2023-01-02T05:46:36.175Z,82.63
2023-01-02T05:49:10.728Z,77.78
2023-01-02T05:51:37.616Z,110.10
2023-01-02T05:54:04.570Z,60.42
2023-01-02T05:56:31.182Z,64.20
2023-01-02T05:58:58.018Z,63.20
2023-01-02T06:01:29.397Z,52.72
2023-01-02T06:06:29.365Z,115.22
2023-01-02T06:08:55.788Z,87.30
2023-01-02T06:11:22.290Z,94.30
2023-01-02T06:13:48.704Z,71.47
2023-01-02T06:16:15.123Z,181.35
2023-01-02T06:18:41.649Z,111.40
2023-01-02T06:21:14.580Z,96.32
2023-01-02T06:23:41.613Z,81.93
2023-01-02T06:26:12.443Z,83.95
2023-01-02T06:28:39.586Z,101.03
2023-01-02T06:31:12.555Z,83.75
2023-01-02T06:33:39.738Z,99.13
2023-01-02T06:36:12.168Z,102.97
2023-01-02T06:38:38.882Z,132.77
2023-01-02T06:41:06.982Z,101.43
2023-01-02T06:43:34.228Z,123.85
2023-01-02T06:46:02.433Z,123.82
2023-01-02T06:48:28.923Z,71.05
2023-01-02T06:50:55.325Z,114.43
2023-01-02T06:53:21.771Z,69.47
2023-01-02T06:56:07.352Z,110.97
2023-01-02T06:58:35.712Z,97.22
2023-01-02T07:01:09.052Z,146.90
2023-01-02T07:03:35.857Z,135.02
2023-01-02T07:06:11.661Z,101.72
2023-01-02T07:08:38.844Z,82.90
2023-01-02T07:11:13.644Z,59.08
2023-01-02T07:13:41.720Z,72.38
2023-01-02T07:16:10.166Z,96.93
2023-01-02T07:18:37.409Z,91.13
2023-01-02T07:21:05.612Z,84.03
2023-01-02T07:23:32.038Z,69.47
2023-01-02T07:26:00.395Z,70.70
2023-01-02T07:28:28.514Z,89.68
2023-01-02T07:31:01.491Z,118.32
2023-01-02T07:33:29.465Z,105.00
2023-01-02T07:36:04.582Z,85.93
2023-01-02T07:38:31.631Z,75.85
2023-01-02T07:40:58.259Z,71.72
2023-01-02T07:43:24.943Z,64.10
2023-01-02T07:45:51.402Z,67.28
2023-01-02T07:48:18.658Z,68.55
2023-01-02T07:50:45.644Z,75.05
2023-01-02T07:53:12.446Z,82.90
2023-01-02T07:55:38.868Z,100.28
2023-01-02T07:58:05.304Z,97.13
2023-01-02T08:00:31.718Z,160.35
2023-01-02T08:02:58.115Z,85.75
2023-01-02T08:05:24.538Z,103.65
2023-01-02T08:07:50.961Z,92.80
2023-01-02T08:10:17.449Z,91.20
2023-01-02T08:12:43.899Z,76.97
2023-01-02T08:15:10.802Z,82.22
2023-01-02T08:17:37.233Z,78.55
2023-01-02T08:20:07.991Z,241.60
2023-01-02T08:22:35.347Z,77.90
2023-01-02T08:25:02.022Z,72.95
2023-01-02T08:27:28.639Z,66.07
2023-01-02T08:29:55.161Z,80.97
2023-01-02T08:32:21.702Z,66.10
2023-01-02T08:34:48.152Z,209.20
2023-01-02T08:37:14.806Z,255.93
2023-01-02T08:39:41.210Z,105.90
2023-01-02T08:42:08.412Z,73.18
2023-01-02T08:44:37.863Z,63.92
2023-01-02T08:47:05.269Z,74.78
2023-01-02T08:49:31.737Z,68.38
2023-01-02T08:51:58.237Z,72.10
2023-01-02T08:54:24.669Z,71.75
2023-01-02T08:56:51.173Z,75.38
2023-01-02T08:59:17.712Z,67.65
2023-01-02T09:01:44.302Z,76.05
2023-01-02T09:04:12.896Z,82.50
2023-01-02T09:06:40.252Z,67.13
2023-01-02T09:09:11.498Z,74.18
2023-01-02T09:11:44.039Z,118.30
2023-01-02T09:16:36.765Z,87.88
2023-01-02T09:19:03.478Z,114.38
2023-01-02T09:21:29.994Z,128.98
2023-01-02T09:23:57.093Z,89.38
2023-01-02T09:26:24.189Z,84.07
2023-01-02T09:28:51.060Z,85.72
2023-01-02T09:31:22.022Z,76.60
2023-01-02T09:33:48.524Z,82.00
2023-01-02T09:36:18.582Z,78.22
2023-01-02T09:38:50.929Z,77.95
2023-01-02T09:41:42.715Z,101.57
2023-01-02T09:44:33.393Z,90.22
2023-01-02T09:47:05.869Z,64.25
2023-01-02T09:49:53.986Z,82.85
2023-01-02T09:52:25.779Z,74.10
2023-01-02T09:54:52.316Z,79.53
2023-01-02T09:57:21.514Z,89.65
2023-01-02T10:00:16.932Z,123.45
2023-01-02T10:03:11.410Z,85.93
2023-01-02T10:05:41.125Z,75.88
2023-01-02T10:08:13.997Z,69.75
2023-01-02T10:10:46.951Z,72.68
2023-01-02T10:14:16.776Z,89.63
2023-01-02T10:16:27.280Z,100.68
2023-01-02T10:18:55.960Z,79.50
2023-01-02T10:21:26.506Z,74.68
2023-01-02T10:24:04.769Z,77.07
2023-01-02T10:26:45.442Z,61.28
2023-01-02T10:29:40.197Z,60.80
2023-01-02T10:32:23.040Z,60.72
2023-01-02T10:35:07.509Z,65.85
2023-01-02T10:37:35.386Z,81.70
2023-01-02T10:40:02.072Z,62.35
2023-01-02T10:42:31.562Z,57.08
2023-01-02T10:44:58.070Z,71.25
2023-01-02T10:47:35.821Z,66.65
2023-01-02T10:50:08.854Z,98.07
2023-01-02T10:52:48.907Z,105.20
2023-01-02T10:55:30.943Z,139.38
2023-01-02T10:58:06.323Z,100.03
2023-01-02T11:00:37.231Z,81.70
2023-01-02T11:03:14.852Z,83.00
2023-01-02T11:05:53.300Z,74.22
2023-01-02T11:08:22.692Z,88.50
2023-01-02T11:10:50.914Z,58.22
2023-01-02T11:13:21.736Z,75.82
2023-01-02T11:15:49.977Z,56.45
2023-01-02T11:18:24.612Z,67.38
2023-01-02T11:20:54.812Z,61.33
2023-01-02T11:23:24.600Z,54.75
2023-01-02T11:25:52.743Z,49.08
2023-01-02T11:28:26.180Z,60.20
2023-01-02T11:30:55.366Z,66.90
2023-01-02T11:33:24.689Z,59.03
2023-01-02T11:36:13.057Z,52.38
2023-01-02T11:38:53.947Z,47.78
2023-01-02T11:42:14.584Z,44.30
2023-01-02T11:44:59.885Z,60.05
2023-01-02T11:47:34.353Z,48.75
2023-01-02T11:50:02.223Z,43.35
2023-01-02T11:52:46.182Z,52.05
2023-01-02T11:55:35.725Z,47.58
2023-01-02T11:58:14.647Z,52.28
2023-01-02T12:00:43.316Z,59.90
2023-01-02T12:03:18.825Z,45.05
2023-01-02T12:06:07.838Z,55.63
2023-01-02T12:09:06.982Z,57.95
2023-01-02T12:11:43.413Z,59.55
2023-01-02T12:14:15.925Z,54.97
2023-01-02T12:16:54.848Z,54.00
2023-01-02T12:19:21.221Z,50.47
2023-01-02T12:21:58.959Z,56.35
2023-01-02T12:24:43.598Z,52.28
2023-01-02T12:27:38.525Z,50.63
2023-01-02T12:30:18.764Z,47.22
2023-01-02T12:33:00.579Z,48.95
2023-01-02T12:35:55.398Z,52.33
2023-01-02T12:38:34.841Z,50.33
2023-01-02T12:41:17.911Z,44.65
2023-01-02T12:44:12.325Z,44.45
2023-01-02T12:47:02.043Z,52.53
2023-01-02T12:49:51.437Z,40.90
2023-01-02T12:52:17.782Z,45.55
2023-01-02T12:54:56.420Z,41.63
2023-01-02T12:57:29.079Z,39.85
2023-01-02T13:00:24.416Z,40.60
2023-01-02T13:03:18.682Z,37.35
2023-01-02T13:05:53.847Z,34.33
2023-01-02T13:08:27.017Z,45.70
2023-01-02T13:10:56.111Z,37.13
2023-01-02T13:13:27.417Z,46.25
2023-01-02T13:16:03.090Z,39.95
2023-01-02T13:19:00.081Z,42.33
2023-01-02T13:21:35.072Z,43.97
2023-01-02T13:24:02.224Z,43.13
2023-01-02T13:26:31.557Z,38.10
2023-01-02T13:29:21.591Z,41.10
2023-01-02T13:31:51.826Z,40.13
2023-01-02T13:34:24.134Z,35.78
2023-01-02T13:36:59.400Z,33.65
2023-01-02T13:39:32.335Z,36.47
2023-01-02T13:42:19.950Z,29.02
2023-01-02T13:44:50.944Z,33.75
2023-01-02T13:47:25.675Z,41.78
2023-01-02T13:50:11.804Z,36.53
2023-01-02T13:52:40.570Z,31.10
2023-01-02T13:55:31.264Z,40.90
2023-01-02T13:58:18.777Z,40.00
2023-01-02T14:00:55.559Z,36.95
2023-01-02T14:03:28.180Z,37.80
2023-01-02T14:05:59.567Z,37.72
2023-01-02T14:08:38.298Z,39.60
2023-01-02T14:11:15.242Z,35.70
2023-01-02T14:13:53.889Z,43.42
2023-01-02T14:16:23.417Z,37.70
2023-01-02T14:19:15.280Z,34.47
2023-01-02T14:21:52.993Z,36.83
2023-01-02T14:24:40.290Z,33.80
2023-01-02T14:27:23.103Z,28.10
2023-01-02T14:29:53.896Z,33.92
2023-01-02T14:32:45.575Z,47.13
2023-01-02T14:37:48.249Z,39.47
2023-01-02T14:40:23.647Z,50.42
2023-01-02T14:43:26.644Z,47.65
2023-01-02T14:46:02.381Z,40.13
2023-01-02T14:48:34.569Z,45.03
2023-01-02T14:51:12.399Z,38.38
2023-01-02T14:53:50.544Z,35.03
2023-01-02T14:56:22.724Z,39.33
2023-01-02T14:58:50.434Z,46.40
2023-01-02T15:01:42.669Z,43.40
2023-01-02T15:04:26.188Z,41.03
2023-01-02T15:07:10.367Z,59.20
2023-01-02T15:09:53.021Z,72.05
2023-01-02T15:12:50.095Z,82.80
2023-01-02T15:15:20.171Z,82.38
2023-01-02T15:17:49.064Z,58.38
2023-01-02T15:20:21.590Z,62.28
2023-01-02T15:22:48.763Z,39.55
2023-01-02T15:25:41.191Z,56.40
2023-01-02T15:28:30.047Z,42.10
2023-01-02T15:31:02.657Z,64.13
2023-01-02T15:33:33.826Z,56.78
2023-01-02T15:36:14.345Z,68.60
2023-01-02T15:38:41.531Z,58.28
2023-01-02T15:41:15.435Z,50.00
2023-01-02T15:44:00.222Z,78.45
2023-01-02T15:46:27.036Z,47.58
2023-01-02T15:48:54.111Z,40.40
2023-01-02T15:51:41.141Z,40.53
2023-01-02T15:54:13.631Z,35.28
2023-01-02T15:56:41.064Z,34.10
2023-01-02T15:59:28.328Z,27.60
2023-01-02T16:01:55.190Z,38.28
2023-01-02T16:04:27.475Z,34.33
2023-01-02T16:06:55.968Z,43.08
2023-01-02T16:09:33.537Z,34.30
2023-01-02T16:12:02.792Z,35.65
2023-01-02T16:14:37.128Z,34.85
2023-01-02T16:17:07.426Z,34.30
2023-01-02T16:19:39.931Z,32.88
2023-01-02T16:22:25.350Z,34.88
2023-01-02T16:25:31.499Z,37.70
2023-01-02T16:28:34.218Z,36.30
2023-01-02T16:31:15.352Z,38.03
2023-01-02T16:33:43.358Z,48.55
2023-01-02T16:36:24.450Z,42.00
2023-01-02T16:38:55.761Z,43.03
2023-01-02T16:43:53.814Z,37.13
2023-01-02T16:46:20.353Z,41.38
2023-01-02T16:48:47.033Z,38.08
2023-01-02T16:51:15.279Z,47.47
2023-01-02T16:53:43.223Z,44.90
2023-01-02T16:56:11.744Z,34.38
2023-01-02T16:58:39.291Z,34.72
2023-01-02T17:01:11.011Z,41.38
2023-01-02T17:03:39.817Z,40.03
2023-01-02T17:06:11.259Z,38.05
2023-01-02T17:11:04.240Z,40.30
2023-01-02T17:13:30.816Z,48.45
2023-01-02T17:15:57.532Z,43.28
2023-01-02T17:18:24.883Z,38.72
2023-01-02T17:20:51.826Z,39.58
2023-01-02T17:23:19.470Z,39.50
2023-01-02T17:25:46.841Z,39.55
2023-01-02T17:28:14.058Z,41.78
2023-01-02T17:30:44.727Z,48.10
2023-01-02T17:33:11.832Z,50.10
2023-01-02T17:35:38.555Z,42.33
2023-01-02T17:38:05.028Z,45.15
2023-01-02T17:40:31.516Z,43.92
2023-01-02T17:42:58.313Z,46.95
2023-01-02T17:45:25.076Z,38.25
2023-01-02T17:48:10.149Z,43.28
2023-01-02T17:50:37.962Z,40.67
2023-01-02T17:53:04.380Z,40.53
2023-01-02T17:55:30.794Z,43.83
2023-01-02T17:57:57.261Z,38.88
2023-01-02T18:00:23.981Z,40.45
2023-01-02T18:02:52.615Z,46.22
2023-01-02T18:05:19.257Z,58.15
2023-01-02T18:07:45.651Z,72.75
2023-01-02T18:10:16.022Z,81.57
2023-01-02T18:12:45.915Z,46.15
2023-01-02T18:15:14.689Z,45.00
2023-01-02T18:17:41.384Z,43.70
2023-01-02T18:20:20.143Z,36.05
2023-01-02T18:22:49.972Z,51.42
2023-01-02T18:25:24.872Z,46.40
2023-01-02T18:27:52.688Z,44.58
2023-01-02T18:30:22.472Z,47.33
2023-01-02T18:32:57.525Z,41.25
2023-01-02T18:38:44.451Z,48.08
2023-01-02T18:41:25.727Z,36.28
2023-01-02T18:43:57.549Z,59.17
2023-01-02T18:47:03.053Z,46.33
2023-01-02T18:49:21.365Z,40.95
2023-01-02T18:51:49.016Z,41.78
2023-01-02T18:54:24.338Z,34.83
2023-01-02T18:56:50.848Z,33.42
2023-01-02T18:59:30.543Z,37.13
2023-01-02T19:02:02.333Z,38.08
2023-01-02T19:04:36.607Z,29.60
2023-01-02T19:07:26.455Z,37.65
2023-01-02T19:10:36.584Z,40.65
2023-01-02T19:13:08.135Z,44.67
2023-01-02T19:15:58.039Z,48.85
2023-01-02T19:18:29.933Z,40.03
2023-01-02T19:21:10.359Z,44.05
2023-01-02T19:23:45.858Z,46.47
2023-01-02T19:26:37.169Z,40.33
2023-01-02T19:29:09.929Z,41.08
2023-01-02T19:31:43.761Z,42.33
2023-01-02T19:34:40.883Z,31.60
2023-01-02T19:37:13.172Z,38.80
2023-01-02T19:39:49.906Z,41.92
2023-01-02T19:42:19.408Z,38.63
2023-01-02T19:45:01.369Z,42.70
2023-01-02T19:47:31.481Z,40.92
2023-01-02T19:49:58.612Z,40.63
2023-01-02T19:52:26.312Z,40.30
2023-01-02T19:54:52.963Z,38.38
2023-01-02T19:57:21.353Z,41.22
2023-01-02T19:59:50.059Z,37.33
2023-01-02T20:02:19.369Z,43.58
2023-01-02T20:04:47.865Z,44.75
2023-01-02T20:07:14.346Z,43.90
2023-01-02T20:09:40.822Z,38.63
2023-01-02T20:12:26.153Z,41.05
2023-01-02T20:14:52.769Z,40.08
2023-01-02T20:17:20.303Z,43.03
2023-01-02T20:19:46.780Z,46.88
2023-01-02T20:22:13.170Z,42.17
2023-01-02T20:24:39.601Z,46.13
2023-01-02T20:27:06.423Z,42.90
2023-01-02T20:29:33.294Z,47.92
2023-01-02T20:31:59.978Z,37.22
2023-01-02T20:34:26.485Z,45.28
2023-01-02T20:36:53.791Z,41.00
2023-01-02T20:39:20.242Z,48.70
2023-01-02T20:41:46.724Z,44.83
2023-01-02T20:44:13.974Z,55.20
2023-01-02T20:46:41.368Z,45.05
2023-01-02T20:49:08.657Z,43.60
2023-01-02T20:51:35.628Z,48.55
2023-01-02T20:54:05.956Z,46.10
2023-01-02T20:56:33.259Z,48.47
2023-01-02T20:58:59.748Z,50.08
2023-01-02T21:01:27.408Z,43.25
2023-01-02T21:03:54.051Z,40.28
2023-01-02T21:06:20.737Z,49.50
2023-01-02T21:08:47.165Z,43.70
2023-01-02T21:11:13.607Z,42.30
2023-01-02T21:13:40.065Z,50.15
2023-01-02T21:16:06.583Z,50.20
2023-01-02T21:18:35.869Z,54.90
2023-01-02T21:21:07.897Z,60.30
2023-01-02T21:23:36.707Z,48.33
2023-01-02T21:26:05.260Z,58.50
2023-01-02T21:28:32.343Z,60.47
2023-01-02T21:30:59.003Z,56.70
2023-01-02T21:33:27.344Z,59.95
2023-01-02T21:35:56.852Z,55.85
2023-01-02T21:38:24.092Z,54.92
2023-01-02T21:40:52.424Z,57.65
2023-01-02T21:43:20.313Z,52.20
2023-01-02T21:45:46.808Z,48.47
2023-01-02T21:48:13.516Z,52.97
2023-01-02T21:50:40.388Z,59.28
2023-01-02T21:53:06.854Z,46.72
2023-01-02T21:55:33.444Z,56.95
2023-01-02T21:58:12.803Z,62.05
2023-01-02T22:00:40.179Z,60.40
2023-01-02T22:03:10.084Z,55.22
2023-01-02T22:05:36.535Z,58.45
2023-01-02T22:08:02.988Z,58.33
2023-01-02T22:10:29.675Z,63.95
2023-01-02T22:12:56.108Z,68.30
2023-01-02T22:15:22.970Z,66.93
2023-01-02T22:17:49.470Z,66.45
2023-01-02T22:20:16.411Z,61.25
2023-01-02T22:22:42.943Z,52.38
2023-01-02T22:25:10.468Z,54.55
2023-01-02T22:27:37.513Z,66.88
2023-01-02T22:30:20.964Z,60.78
2023-01-02T22:32:51.386Z,72.80
2023-01-02T22:35:18.101Z,69.82
2023-01-02T22:37:44.561Z,68.25
2023-01-02T22:40:11.526Z,84.85
2023-01-02T22:43:05.232Z,69.40
2023-01-02T22:45:48.118Z,74.28
2023-01-02T22:48:21.929Z,78.18
2023-01-02T22:50:51.574Z,59.72
2023-01-02T22:53:23.060Z,69.72
2023-01-02T22:55:50.257Z,77.78
2023-01-02T22:58:18.283Z,78.90
2023-01-02T23:00:47.567Z,73.70
2023-01-02T23:03:18.786Z,98.95
2023-01-02T23:05:45.224Z,98.00
2023-01-02T23:08:11.716Z,78.70
2023-01-02T23:10:38.166Z,69.60
2023-01-02T23:13:04.642Z,56.60
2023-01-02T23:15:31.133Z,55.85
2023-01-02T23:18:16.248Z,53.13
2023-01-02T23:20:42.643Z,47.47
2023-01-02T23:23:09.088Z,47.42
2023-01-02T23:25:40.426Z,55.92
2023-01-02T23:30:33.199Z,50.90
2023-01-02T23:32:59.614Z,51.70
2023-01-02T23:35:26.090Z,51.85
2023-01-02T23:37:52.503Z,47.97
2023-01-02T23:40:18.943Z,47.25
2023-01-02T23:42:45.344Z,46.58
2023-01-02T23:45:11.827Z,45.85
2023-01-02T23:47:38.219Z,46.25
2023-01-02T23:50:06.500Z,54.85
2023-01-02T23:52:32.966Z,52.42
2023-01-02T23:54:59.351Z,48.92
2023-01-02T23:57:25.781Z,54.45
2023-01-02T23:59:52.189Z,52.85
